Time;durP1;ratioP1;P1;durP2;ratioP2;P2;SDS_P1;SDS_P2;PMS_P1;PMS_P2;Temp;Humidity;BMP_temperature;BMP_pressure;BME280_temperature;BME280_humidity;BME280_pressure;Samples;Min_cycle;Max_cycle;Signal;HPM_P1;HPM_P2
2021/08/19 00:01:28;;;;;;;2.10;1.90;;;;;;;;;;5048373;28;20210;-84
2021/08/19 00:03:54;;;;;;;2.88;1.67;;;;;;;;;;5048339;28;20179;-83
2021/08/19 00:06:20;;;;;;;2.23;2.03;;;;;;;;;;5048268;28;20174;-84
2021/08/19 00:08:46;;;;;;;2.08;1.88;;;;;;;;;;5041801;28;20442;-84
2021/08/19 00:11:12;;;;;;;3.07;1.73;;;;;;;;;;5050049;28;20609;-83
2021/08/19 00:13:39;;;;;;;3.80;2.00;;;;;;;;;;5047622;28;20448;-84
2021/08/19 00:16:07;;;;;;;2.20;2.00;;;;;;;;;;5047931;28;20189;-84
2021/08/19 00:18:33;;;;;;;2.47;2.28;;;;;;;;;;5048805;28;20230;-84
2021/08/19 00:20:59;;;;;;;1.75;1.48;;;;;;;;;;5059418;28;20209;-81
2021/08/19 00:23:25;;;;;;;1.92;1.65;;;;;;;;;;5047760;28;20205;-83
2021/08/19 00:25:51;;;;;;;1.70;1.60;;;;;;;;;;5048708;28;20169;-84
2021/08/19 00:28:17;;;;;;;1.63;1.52;;;;;;;;;;5046476;28;20448;-84
2021/08/19 00:30:43;;;;;;;2.03;1.60;;;;;;;;;;5049111;28;20190;-84
2021/08/19 00:33:10;;;;;;;2.03;1.80;;;;;;;;;;5045132;28;20564;-84
2021/08/19 00:35:37;;;;;;;2.03;1.83;;;;;;;;;;5060951;28;20471;-83
2021/08/19 00:38:03;;;;;;;2.30;1.65;;;;;;;;;;5063078;28;20178;-83
2021/08/19 00:40:29;;;;;;;3.20;1.77;;;;;;;;;;5058969;28;20237;-84
2021/08/19 00:42:56;;;;;;;1.90;1.50;;;;;;;;;;5054337;28;20246;-83
2021/08/19 00:45:22;;;;;;;1.63;1.35;;;;;;;;;;5047271;28;20178;-83
2021/08/19 00:47:48;;;;;;;1.92;1.73;;;;;;;;;;5058826;28;20182;-84
2021/08/19 00:50:14;;;;;;;1.73;1.40;;;;;;;;;;5065686;28;20327;-85
2021/08/19 00:52:41;;;;;;;2.50;1.90;;;;;;;;;;5048295;28;20278;-83
2021/08/19 00:55:07;;;;;;;2.92;1.45;;;;;;;;;;5045543;28;20186;-84
2021/08/19 00:57:34;;;;;;;2.15;1.85;;;;;;;;;;5047689;28;20197;-84
2021/08/19 01:00:00;;;;;;;2.17;1.60;;;;;;;;;;5043289;28;20210;-84
2021/08/19 01:02:26;;;;;;;1.85;1.75;;;;;;;;;;5062176;28;20177;-84
2021/08/19 01:04:52;;;;;;;1.65;1.55;;;;;;;;;;5048355;28;20176;-84
2021/08/19 01:07:18;;;;;;;1.80;1.70;;;;;;;;;;5047093;28;20208;-83
2021/08/19 01:09:44;;;;;;;2.28;1.77;;;;;;;;;;5046652;28;20190;-84
2021/08/19 01:12:11;;;;;;;1.65;1.55;;;;;;;;;;5044253;28;20190;-83
2021/08/19 01:14:38;;;;;;;1.70;1.60;;;;;;;;;;5043715;28;20189;-83
2021/08/19 01:17:11;;;;;;;4.03;1.95;;;;;;;;;;5056895;28;20245;-84
2021/08/19 01:19:38;;;;;;;1.67;1.55;;;;;;;;;;5048244;28;20233;-84
2021/08/19 01:22:04;;;;;;;2.13;1.92;;;;;;;;;;5052010;28;20185;-84
2021/08/19 01:24:30;;;;;;;2.03;1.83;;;;;;;;;;5055739;28;20652;-84
2021/08/19 01:26:56;;;;;;;1.70;1.60;;;;;;;;;;5056646;28;20185;-84
2021/08/19 01:29:22;;;;;;;2.05;1.80;;;;;;;;;;5046525;28;20452;-83
2021/08/19 01:32:09;;;;;;;1.70;1.60;;;;;;;;;;5058207;28;20225;-84
2021/08/19 01:34:35;;;;;;;2.40;2.20;;;;;;;;;;5058593;28;20448;-84
2021/08/19 01:37:01;;;;;;;1.77;1.63;;;;;;;;;;5040534;28;20195;-84
2021/08/19 01:39:27;;;;;;;3.00;1.70;;;;;;;;;;5045988;28;20265;-83
2021/08/19 01:41:53;;;;;;;2.10;1.90;;;;;;;;;;5042711;28;20178;-83
2021/08/19 01:44:20;;;;;;;1.85;1.75;;;;;;;;;;5063333;28;20260;-84
2021/08/19 01:46:50;;;;;;;1.85;1.65;;;;;;;;;;5054041;28;20185;-84
2021/08/19 01:49:17;;;;;;;1.70;1.60;;;;;;;;;;5049976;28;20673;-84
2021/08/19 01:51:44;;;;;;;3.17;1.60;;;;;;;;;;5046918;28;20673;-81
2021/08/19 01:54:10;;;;;;;1.80;1.70;;;;;;;;;;5044787;28;20217;-84
2021/08/19 01:56:36;;;;;;;2.85;1.95;;;;;;;;;;5058307;28;20169;-83
2021/08/19 01:59:02;;;;;;;2.40;2.20;;;;;;;;;;5046940;28;20185;-84
2021/08/19 02:01:28;;;;;;;2.50;1.90;;;;;;;;;;5046652;28;20498;-83
2021/08/19 02:03:55;;;;;;;2.00;1.87;;;;;;;;;;5047003;28;20174;-84
2021/08/19 02:06:21;;;;;;;3.08;2.58;;;;;;;;;;5046085;28;20837;-84
2021/08/19 02:08:47;;;;;;;2.25;1.85;;;;;;;;;;5039233;28;20217;-84
2021/08/19 02:11:13;;;;;;;1.90;1.70;;;;;;;;;;5048235;28;20539;-83
2021/08/19 02:13:39;;;;;;;1.60;1.50;;;;;;;;;;5046466;28;20205;-84
2021/08/19 02:16:05;;;;;;;1.58;1.38;;;;;;;;;;5051904;28;20181;-84
2021/08/19 02:18:32;;;;;;;2.03;1.83;;;;;;;;;;5052230;28;20248;-83
2021/08/19 02:20:58;;;;;;;1.63;1.52;;;;;;;;;;5054978;28;20263;-84
2021/08/19 02:23:24;;;;;;;4.80;1.70;;;;;;;;;;5044986;28;20658;-83
2021/08/19 02:25:50;;;;;;;1.63;1.52;;;;;;;;;;5047649;28;20174;-84
2021/08/19 02:28:16;;;;;;;2.20;2.00;;;;;;;;;;5045899;28;20194;-83
2021/08/19 02:30:42;;;;;;;5.40;2.15;;;;;;;;;;5045889;28;20933;-84
2021/08/19 02:33:08;;;;;;;2.25;1.58;;;;;;;;;;5043653;28;20668;-84
2021/08/19 02:35:34;;;;;;;4.90;1.80;;;;;;;;;;5043879;28;20192;-84
2021/08/19 02:38:01;;;;;;;2.20;2.00;;;;;;;;;;5047478;28;20185;-84
2021/08/19 02:40:29;;;;;;;1.67;1.55;;;;;;;;;;5046114;28;21010;-84
2021/08/19 02:42:55;;;;;;;2.05;1.58;;;;;;;;;;5046246;28;20181;-83
2021/08/19 02:45:22;;;;;;;1.75;1.65;;;;;;;;;;5044650;28;20205;-83
2021/08/19 02:47:48;;;;;;;2.80;1.67;;;;;;;;;;5040108;28;20217;-84
2021/08/19 02:50:14;;;;;;;2.05;1.85;;;;;;;;;;5047018;28;20213;-82
2021/08/19 02:52:41;;;;;;;2.00;1.75;;;;;;;;;;5041476;28;20272;-84
2021/08/19 02:55:07;;;;;;;1.60;1.50;;;;;;;;;;5041105;28;20272;-84
2021/08/19 02:57:34;;;;;;;2.30;2.10;;;;;;;;;;5041612;28;20648;-84
2021/08/19 03:00:00;;;;;;;1.92;1.75;;;;;;;;;;5055439;28;20210;-84
2021/08/19 03:02:26;;;;;;;1.60;1.50;;;;;;;;;;5043950;28;20184;-84
2021/08/19 03:04:52;;;;;;;1.65;1.50;;;;;;;;;;5040856;28;20170;-83
2021/08/19 03:07:18;;;;;;;2.15;1.75;;;;;;;;;;5045751;28;20188;-84
2021/08/19 03:09:44;;;;;;;3.20;1.42;;;;;;;;;;5049338;28;20213;-84
2021/08/19 03:12:10;;;;;;;2.43;1.87;;;;;;;;;;5047430;28;20216;-84
2021/08/19 03:14:36;;;;;;;2.00;1.80;;;;;;;;;;5047162;28;20431;-84
2021/08/19 03:17:02;;;;;;;1.60;1.50;;;;;;;;;;5050009;28;20170;-84
2021/08/19 03:19:28;;;;;;;1.65;1.55;;;;;;;;;;5044257;28;20206;-84
2021/08/19 03:21:54;;;;;;;2.00;1.58;;;;;;;;;;5048944;28;20188;-84
2021/08/19 03:24:20;;;;;;;1.58;1.40;;;;;;;;;;5048808;28;20201;-83
2021/08/19 03:26:47;;;;;;;1.92;1.20;;;;;;;;;;5043411;28;20178;-84
2021/08/19 03:29:13;;;;;;;2.00;1.80;;;;;;;;;;5065019;28;20528;-84
2021/08/19 03:31:39;;;;;;;1.90;1.75;;;;;;;;;;5050805;28;20190;-84
2021/08/19 03:34:05;;;;;;;2.00;1.80;;;;;;;;;;5048968;28;20198;-84
2021/08/19 03:36:31;;;;;;;2.67;1.80;;;;;;;;;;5047987;28;20185;-83
2021/08/19 03:38:57;;;;;;;2.43;2.10;;;;;;;;;;5044603;28;20448;-83
2021/08/19 03:41:23;;;;;;;1.70;1.60;;;;;;;;;;5048621;28;20412;-83
2021/08/19 03:43:49;;;;;;;2.57;2.13;;;;;;;;;;5060742;28;20201;-84
2021/08/19 03:46:15;;;;;;;2.55;1.77;;;;;;;;;;5043783;28;20436;-83
2021/08/19 03:48:42;;;;;;;2.45;2.22;;;;;;;;;;5046498;28;20191;-84
2021/08/19 03:51:09;;;;;;;2.10;1.90;;;;;;;;;;5044621;28;20190;-83
2021/08/19 03:53:38;;;;;;;2.92;2.72;;;;;;;;;;5045841;28;20216;-84
2021/08/19 03:56:04;;;;;;;3.05;2.00;;;;;;;;;;5050197;28;20170;-84
2021/08/19 03:58:30;;;;;;;1.50;1.30;;;;;;;;;;5048256;28;20354;-83
2021/08/19 04:00:57;;;;;;;2.10;1.88;;;;;;;;;;5048333;28;20220;-83
2021/08/19 04:03:23;;;;;;;1.83;1.70;;;;;;;;;;5048073;28;20207;-83
2021/08/19 04:05:49;;;;;;;2.37;2.17;;;;;;;;;;5042643;28;20197;-84
2021/08/19 04:08:15;;;;;;;1.87;1.60;;;;;;;;;;5065560;28;20411;-83
2021/08/19 04:10:41;;;;;;;1.92;1.80;;;;;;;;;;5048800;28;20437;-84
2021/08/19 04:13:07;;;;;;;6.70;2.40;;;;;;;;;;5049054;28;20300;-84
2021/08/19 04:15:33;;;;;;;2.30;1.85;;;;;;;;;;5049851;28;20427;-83
2021/08/19 04:17:59;;;;;;;2.77;2.40;;;;;;;;;;5058142;28;20230;-84
2021/08/19 04:20:25;;;;;;;2.13;1.87;;;;;;;;;;5046741;28;20460;-83
2021/08/19 04:22:51;;;;;;;2.67;2.23;;;;;;;;;;5047900;28;20444;-84
2021/08/19 04:25:17;;;;;;;2.20;2.10;;;;;;;;;;5048330;28;20661;-84
2021/08/19 04:27:43;;;;;;;2.10;1.90;;;;;;;;;;5047047;28;20431;-84
2021/08/19 04:30:09;;;;;;;2.30;1.75;;;;;;;;;;5041346;28;20531;-84
2021/08/19 04:32:36;;;;;;;2.67;2.47;;;;;;;;;;5058338;28;20204;-83
2021/08/19 04:35:03;;;;;;;3.22;1.80;;;;;;;;;;5048548;28;20169;-83
2021/08/19 04:37:29;;;;;;;1.88;1.75;;;;;;;;;;5052700;28;20256;-84
2021/08/19 04:39:55;;;;;;;2.28;2.00;;;;;;;;;;5053556;28;20228;-81
2021/08/19 04:42:21;;;;;;;3.63;2.53;;;;;;;;;;5048282;28;20182;-84
2021/08/19 04:44:47;;;;;;;2.65;2.45;;;;;;;;;;5042307;28;20449;-83
2021/08/19 04:47:13;;;;;;;2.10;1.90;;;;;;;;;;5048821;28;20237;-83
2021/08/19 04:49:39;;;;;;;3.87;2.00;;;;;;;;;;5057456;28;20224;-84
2021/08/19 04:52:05;;;;;;;3.10;2.00;;;;;;;;;;5052768;28;20466;-83
2021/08/19 04:54:31;;;;;;;3.47;2.70;;;;;;;;;;5048180;28;20436;-83
2021/08/19 04:56:57;;;;;;;2.30;2.03;;;;;;;;;;5043128;28;20189;-83
2021/08/19 04:59:23;;;;;;;4.40;2.50;;;;;;;;;;5060986;28;20459;-83
2021/08/19 05:01:49;;;;;;;2.93;1.90;;;;;;;;;;5058211;28;20425;-83
2021/08/19 05:04:15;;;;;;;3.55;2.40;;;;;;;;;;5042926;28;20432;-84
2021/08/19 05:06:41;;;;;;;2.37;2.00;;;;;;;;;;5046060;28;20188;-84
2021/08/19 05:09:07;;;;;;;2.45;2.13;;;;;;;;;;5045643;28;20432;-83
2021/08/19 05:11:34;;;;;;;1.95;1.80;;;;;;;;;;5045361;28;20170;-83
2021/08/19 05:14:00;;;;;;;2.30;2.10;;;;;;;;;;5048390;28;20201;-84
2021/08/19 05:16:26;;;;;;;2.05;1.95;;;;;;;;;;5046723;28;20277;-83
2021/08/19 05:18:53;;;;;;;3.72;2.50;;;;;;;;;;5050149;28;20213;-83
2021/08/19 05:21:19;;;;;;;2.25;2.05;;;;;;;;;;5056651;28;20181;-84
2021/08/19 05:23:45;;;;;;;2.10;1.88;;;;;;;;;;5041500;28;20246;-83
2021/08/19 05:26:11;;;;;;;2.50;2.30;;;;;;;;;;5058480;28;20196;-83
2021/08/19 05:28:37;;;;;;;3.50;2.27;;;;;;;;;;5048849;28;20201;-84
2021/08/19 05:31:03;;;;;;;3.27;2.07;;;;;;;;;;5041356;28;20456;-84
2021/08/19 05:33:29;;;;;;;3.22;2.28;;;;;;;;;;5045159;28;20447;-84
2021/08/19 05:35:55;;;;;;;2.67;2.47;;;;;;;;;;5041960;28;20189;-84
2021/08/19 05:38:21;;;;;;;2.60;2.40;;;;;;;;;;5048340;28;20177;-83
2021/08/19 05:40:47;;;;;;;3.40;2.47;;;;;;;;;;5045149;28;20204;-83
2021/08/19 05:43:13;;;;;;;2.53;2.30;;;;;;;;;;5049255;28;20436;-83
2021/08/19 05:45:41;;;;;;;2.22;2.05;;;;;;;;;;5057395;28;20431;-84
2021/08/19 05:48:07;;;;;;;3.72;2.90;;;;;;;;;;5055801;28;20215;-84
2021/08/19 05:50:36;;;;;;;5.35;3.00;;;;;;;;;;5041291;28;20184;-83
2021/08/19 05:53:02;;;;;;;2.53;2.33;;;;;;;;;;5055119;28;20169;-84
2021/08/19 05:55:28;;;;;;;4.13;3.33;;;;;;;;;;5049319;28;20624;-83
2021/08/19 05:57:54;;;;;;;2.37;2.17;;;;;;;;;;5046575;28;20261;-84
2021/08/19 06:00:21;;;;;;;2.30;2.10;;;;;;;;;;5044431;28;20593;-84
2021/08/19 06:02:48;;;;;;;3.08;2.78;;;;;;;;;;5041548;28;20256;-83
2021/08/19 06:05:14;;;;;;;3.90;2.72;;;;;;;;;;5059133;28;20180;-85
2021/08/19 06:07:40;;;;;;;2.57;2.20;;;;;;;;;;5046139;28;20189;-84
2021/08/19 06:10:06;;;;;;;3.22;3.00;;;;;;;;;;5046377;28;20452;-83
2021/08/19 06:12:33;;;;;;;3.05;2.85;;;;;;;;;;5044696;28;20185;-84
2021/08/19 06:14:59;;;;;;;4.30;2.38;;;;;;;;;;5041081;28;20247;-83
2021/08/19 06:17:25;;;;;;;3.50;2.83;;;;;;;;;;5046180;28;20221;-83
2021/08/19 06:19:51;;;;;;;2.70;2.50;;;;;;;;;;5046648;28;20467;-84
2021/08/19 06:22:17;;;;;;;4.70;2.97;;;;;;;;;;5054095;28;20181;-84
2021/08/19 06:24:43;;;;;;;3.33;3.03;;;;;;;;;;5057244;28;20427;-83
2021/08/19 06:27:09;;;;;;;3.50;3.20;;;;;;;;;;5056520;28;20178;-84
2021/08/19 06:29:35;;;;;;;3.65;2.60;;;;;;;;;;5042243;28;20439;-83
2021/08/19 06:32:01;;;;;;;3.33;2.67;;;;;;;;;;5045011;28;20194;-83
2021/08/19 06:34:28;;;;;;;2.57;2.37;;;;;;;;;;5055178;28;20220;-83
2021/08/19 06:36:54;;;;;;;3.08;2.78;;;;;;;;;;5053258;28;20439;-83
2021/08/19 06:39:20;;;;;;;3.10;2.80;;;;;;;;;;5045620;28;20228;-83
2021/08/19 06:41:47;;;;;;;4.10;3.08;;;;;;;;;;5040220;28;20185;-84
2021/08/19 06:44:13;;;;;;;3.72;2.90;;;;;;;;;;5045789;28;20174;-84
2021/08/19 06:46:39;;;;;;;2.67;2.47;;;;;;;;;;5045885;28;20189;-83
2021/08/19 06:49:05;;;;;;;3.13;2.75;;;;;;;;;;5044854;28;20185;-81
2021/08/19 06:51:31;;;;;;;7.20;3.22;;;;;;;;;;5056256;28;20266;-83
2021/08/19 06:53:57;;;;;;;4.28;3.53;;;;;;;;;;5039924;28;20178;-83
2021/08/19 06:56:23;;;;;;;3.50;3.15;;;;;;;;;;5046462;28;20237;-83
2021/08/19 06:58:49;;;;;;;4.13;2.88;;;;;;;;;;5056182;28;20174;-83
2021/08/19 07:01:15;;;;;;;3.90;2.60;;;;;;;;;;5047900;28;20208;-83
2021/08/19 07:03:41;;;;;;;4.63;3.30;;;;;;;;;;5043376;28;20278;-84
2021/08/19 07:06:15;;;;;;;3.60;3.10;;;;;;;;;;5055899;28;20439;-83
2021/08/19 07:08:41;;;;;;;3.97;3.40;;;;;;;;;;5042009;28;21416;-83
2021/08/19 07:11:08;;;;;;;3.85;3.42;;;;;;;;;;5045704;28;20392;-84
2021/08/19 07:13:34;;;;;;;5.65;3.08;;;;;;;;;;5044091;28;20659;-82
2021/08/19 07:16:00;;;;;;;4.68;3.60;;;;;;;;;;5046045;28;20653;-84
2021/08/19 07:18:26;;;;;;;6.07;3.83;;;;;;;;;;5039377;28;20244;-83
2021/08/19 07:20:51;;;;;;;3.57;3.20;;;;;;;;;;5055007;28;20475;-83
2021/08/19 07:23:18;;;;;;;4.90;3.83;;;;;;;;;;5053540;28;20436;-83
2021/08/19 07:25:44;;;;;;;3.90;3.60;;;;;;;;;;5046092;28;20488;-84
2021/08/19 07:28:10;;;;;;;4.25;3.30;;;;;;;;;;5045296;28;20190;-83
2021/08/19 07:30:36;;;;;;;3.20;2.83;;;;;;;;;;5045369;28;20390;-82
2021/08/19 07:33:03;;;;;;;3.95;3.65;;;;;;;;;;5041670;28;20191;-84
2021/08/19 07:35:29;;;;;;;3.35;3.05;;;;;;;;;;5044674;28;20178;-83
2021/08/19 07:37:56;;;;;;;5.97;4.35;;;;;;;;;;5046358;28;20238;-82
2021/08/19 07:40:27;;;;;;;4.05;3.63;;;;;;;;;;5045428;28;20213;-84
2021/08/19 07:42:54;;;;;;;4.93;3.22;;;;;;;;;;5044783;28;20178;-84
2021/08/19 07:45:21;;;;;;;3.40;2.90;;;;;;;;;;5043317;28;20241;-84
2021/08/19 07:47:47;;;;;;;6.13;4.00;;;;;;;;;;5040308;28;20241;-85
2021/08/19 07:50:13;;;;;;;4.28;3.55;;;;;;;;;;5056983;28;20246;-84
2021/08/19 07:52:39;;;;;;;3.78;3.10;;;;;;;;;;5044731;28;20546;-83
2021/08/19 07:55:06;;;;;;;5.18;3.33;;;;;;;;;;5046698;28;20208;-83
2021/08/19 07:57:41;;;;;;;4.35;3.67;;;;;;;;;;5058511;28;20189;-82
2021/08/19 08:00:08;;;;;;;4.30;3.20;;;;;;;;;;5045045;28;20279;-83
2021/08/19 08:02:34;;;;;;;10.00;4.38;;;;;;;;;;5045665;28;20174;-83
2021/08/19 08:05:00;;;;;;;4.40;3.30;;;;;;;;;;5063799;28;20192;-83
2021/08/19 08:07:26;;;;;;;4.37;3.40;;;;;;;;;;5051030;28;20464;-84
2021/08/19 08:09:52;;;;;;;4.93;3.37;;;;;;;;;;5046576;28;20444;-84
2021/08/19 08:12:18;;;;;;;4.27;3.60;;;;;;;;;;5043051;28;20436;-83
2021/08/19 08:14:44;;;;;;;4.97;3.15;;;;;;;;;;5058499;28;20441;-84
2021/08/19 08:17:10;;;;;;;6.63;3.10;;;;;;;;;;5049264;28;20214;-84
2021/08/19 08:19:37;;;;;;;4.30;3.05;;;;;;;;;;5053071;28;20212;-84
2021/08/19 08:22:03;;;;;;;5.05;3.10;;;;;;;;;;5053802;28;20262;-84
2021/08/19 08:24:29;;;;;;;4.22;3.83;;;;;;;;;;5043418;28;20182;-83
2021/08/19 08:26:55;;;;;;;3.90;3.20;;;;;;;;;;5041958;28;20186;-83
2021/08/19 08:29:22;;;;;;;3.45;3.15;;;;;;;;;;5049415;28;20433;-81
2021/08/19 08:31:49;;;;;;;4.28;2.95;;;;;;;;;;5054977;28;20184;-83
2021/08/19 08:34:15;;;;;;;4.20;3.33;;;;;;;;;;5047844;28;20184;-82
2021/08/19 08:36:42;;;;;;;3.25;2.95;;;;;;;;;;5048858;28;20200;-84
2021/08/19 08:39:10;;;;;;;3.88;3.30;;;;;;;;;;5046501;28;20193;-83
2021/08/19 08:41:39;;;;;;;3.72;2.95;;;;;;;;;;5044493;28;20966;-84
2021/08/19 08:44:05;;;;;;;3.00;2.70;;;;;;;;;;5048977;28;20169;-84
2021/08/19 08:46:33;;;;;;;4.90;2.22;;;;;;;;;;5052359;28;20208;-84
2021/08/19 08:48:59;;;;;;;2.60;1.92;;;;;;;;;;5053588;28;20186;-84
2021/08/19 08:51:26;;;;;;;2.45;2.00;;;;;;;;;;5041707;28;20238;-84
2021/08/19 08:53:52;;;;;;;2.85;2.20;;;;;;;;;;5056181;28;20408;-82
2021/08/19 08:56:18;;;;;;;2.35;2.13;;;;;;;;;;5060136;28;20180;-82
2021/08/19 08:58:44;;;;;;;2.60;2.00;;;;;;;;;;5048505;28;20214;-83
2021/08/19 09:01:11;;;;;;;1.97;1.83;;;;;;;;;;5045301;28;20212;-83
2021/08/19 09:03:37;;;;;;;3.30;3.00;;;;;;;;;;5045468;28;20443;-83
2021/08/19 09:06:03;;;;;;;3.30;2.28;;;;;;;;;;5044523;28;20214;-83
2021/08/19 09:08:29;;;;;;;6.30;2.20;;;;;;;;;;5045825;28;20228;-83
2021/08/19 09:10:56;;;;;;;2.97;2.35;;;;;;;;;;5047088;28;20436;-83
2021/08/19 09:13:26;;;;;;;2.90;1.70;;;;;;;;;;5050899;28;20739;-83
2021/08/19 09:15:52;;;;;;;1.55;1.45;;;;;;;;;;5054682;28;20527;-84
2021/08/19 09:18:37;;;;;;;1.85;1.60;;;;;;;;;;5044516;28;20365;-84
2021/08/19 09:21:16;;;;;;;1.65;1.55;;;;;;;;;;5044885;28;20206;-83
2021/08/19 09:23:41;;;;;;;1.50;1.38;;;;;;;;;;5043414;28;20224;-83
2021/08/19 09:26:07;;;;;;;3.40;1.43;;;;;;;;;;5048212;28;20174;-84
2021/08/19 09:28:33;;;;;;;1.55;1.42;;;;;;;;;;5056306;28;20429;-84
2021/08/19 09:31:04;;;;;;;1.40;1.30;;;;;;;;;;5054195;28;20193;-82
2021/08/19 09:33:31;;;;;;;1.85;1.65;;;;;;;;;;5056870;28;20792;-83
2021/08/19 09:35:59;;;;;;;1.80;1.42;;;;;;;;;;5042362;28;20197;-83
2021/08/19 09:38:26;;;;;;;1.70;1.60;;;;;;;;;;5061531;28;20184;-83
2021/08/19 09:41:06;;;;;;;1.70;1.60;;;;;;;;;;5046468;28;20258;-83
2021/08/19 09:43:38;;;;;;;2.55;1.55;;;;;;;;;;5051038;28;20178;-84
2021/08/19 09:46:04;;;;;;;1.70;1.30;;;;;;;;;;5050907;28;20216;-83
2021/08/19 09:48:30;;;;;;;2.67;1.30;;;;;;;;;;5046749;28;20190;-84
2021/08/19 09:51:12;;;;;;;1.60;1.30;;;;;;;;;;5057818;28;20434;-83
2021/08/19 09:53:42;;;;;;;2.05;1.52;;;;;;;;;;5042400;28;20178;-83
2021/08/19 09:56:10;;;;;;;1.45;1.20;;;;;;;;;;5057353;28;20176;-83
2021/08/19 09:58:36;;;;;;;1.75;1.52;;;;;;;;;;5046483;28;20399;-84
2021/08/19 10:01:02;;;;;;;1.67;1.52;;;;;;;;;;5046397;28;20206;-83
2021/08/19 10:03:28;;;;;;;1.70;1.33;;;;;;;;;;5045880;28;20196;-83
2021/08/19 10:05:55;;;;;;;1.60;1.50;;;;;;;;;;5039938;28;20182;-83
2021/08/19 10:08:21;;;;;;;2.00;1.80;;;;;;;;;;5059037;28;20166;-84
2021/08/19 10:10:50;;;;;;;1.70;1.58;;;;;;;;;;5046882;28;20187;-84
2021/08/19 10:13:17;;;;;;;1.73;1.60;;;;;;;;;;5048505;28;20262;-84
2021/08/19 10:15:44;;;;;;;2.05;1.42;;;;;;;;;;5055005;28;20190;-84
2021/08/19 10:18:13;;;;;;;1.48;1.30;;;;;;;;;;5041502;28;20231;-84
2021/08/19 10:20:41;;;;;;;1.48;1.38;;;;;;;;;;5041793;28;20694;-83
2021/08/19 10:23:09;;;;;;;2.25;1.50;;;;;;;;;;5046449;28;20175;-83
2021/08/19 10:25:35;;;;;;;1.80;1.52;;;;;;;;;;5046287;28;20193;-83
2021/08/19 10:28:15;;;;;;;1.45;1.35;;;;;;;;;;5046647;28;20200;-84
2021/08/19 10:30:51;;;;;;;2.03;1.65;;;;;;;;;;5053601;28;20191;-83
2021/08/19 10:33:36;;;;;;;1.92;1.67;;;;;;;;;;5043433;28;20186;-84
2021/08/19 10:36:22;;;;;;;1.95;1.60;;;;;;;;;;5042113;28;20201;-84
2021/08/19 10:38:48;;;;;;;1.55;1.40;;;;;;;;;;5041070;28;20245;-85
2021/08/19 10:41:32;;;;;;;3.10;1.67;;;;;;;;;;5048567;28;20205;-84
2021/08/19 10:44:05;;;;;;;1.75;1.65;;;;;;;;;;5048783;28;20906;-83
2021/08/19 10:46:38;;;;;;;2.10;1.30;;;;;;;;;;5044147;28;20304;-85
2021/08/19 10:49:04;;;;;;;1.45;1.10;;;;;;;;;;5046543;28;20226;-83
2021/08/19 10:51:30;;;;;;;1.55;1.20;;;;;;;;;;5054662;28;20174;-84
2021/08/19 10:53:56;;;;;;;1.30;1.02;;;;;;;;;;5041661;28;20286;-84
2021/08/19 10:56:41;;;;;;;1.30;1.15;;;;;;;;;;5045839;28;20177;-84
2021/08/19 10:59:28;;;;;;;2.28;1.30;;;;;;;;;;5055917;28;20182;-84
2021/08/19 11:01:54;;;;;;;2.95;1.40;;;;;;;;;;5043057;28;20192;-84
2021/08/19 11:04:40;;;;;;;1.37;1.27;;;;;;;;;;5052918;28;20655;-84
2021/08/19 11:07:07;;;;;;;1.73;1.63;;;;;;;;;;5038540;28;20459;-83
2021/08/19 11:09:33;;;;;;;1.35;1.25;;;;;;;;;;5045595;28;20192;-84
2021/08/19 11:12:04;;;;;;;3.03;1.35;;;;;;;;;;5043080;28;20187;-83
2021/08/19 11:14:30;;;;;;;3.47;1.63;;;;;;;;;;5044520;28;20177;-83
2021/08/19 11:16:57;;;;;;;2.13;1.30;;;;;;;;;;5045190;28;20182;-84
2021/08/19 11:19:25;;;;;;;1.90;1.50;;;;;;;;;;5044345;28;20670;-83
2021/08/19 11:21:52;;;;;;;1.52;1.42;;;;;;;;;;5044495;28;20729;-83
2021/08/19 11:24:18;;;;;;;1.45;1.35;;;;;;;;;;5044454;28;20201;-83
2021/08/19 11:27:06;;;;;;;1.30;1.20;;;;;;;;;;5040077;28;20180;-83
2021/08/19 11:29:39;;;;;;;1.50;1.40;;;;;;;;;;5065427;28;20249;-83
2021/08/19 11:32:16;;;;;;;1.50;1.13;;;;;;;;;;5048431;28;20201;-84
2021/08/19 11:34:50;;;;;;;1.67;1.10;;;;;;;;;;5048500;28;20182;-84
2021/08/19 11:37:26;;;;;;;1.23;1.02;;;;;;;;;;5056471;28;20181;-84
2021/08/19 11:39:56;;;;;;;1.33;1.23;;;;;;;;;;5055866;28;20282;-84
2021/08/19 11:42:29;;;;;;;1.23;1.13;;;;;;;;;;5044713;28;20183;-84
2021/08/19 11:45:14;;;;;;;2.45;1.25;;;;;;;;;;5042444;28;20205;-84
2021/08/19 11:47:40;;;;;;;1.63;1.52;;;;;;;;;;5059654;28;20182;-83
2021/08/19 11:50:06;;;;;;;2.60;1.30;;;;;;;;;;5045263;28;20243;-85
2021/08/19 11:52:32;;;;;;;1.60;1.30;;;;;;;;;;5057477;28;20808;-84
2021/08/19 11:54:58;;;;;;;2.60;1.60;;;;;;;;;;5055922;28;20187;-84
2021/08/19 11:57:24;;;;;;;2.30;1.20;;;;;;;;;;5048535;28;20949;-84
2021/08/19 12:00:01;;;;;;;1.23;1.13;;;;;;;;;;5043306;28;20466;-84
2021/08/19 12:02:27;;;;;;;1.48;1.38;;;;;;;;;;5041345;28;20175;-84
2021/08/19 12:05:03;;;;;;;1.23;1.13;;;;;;;;;;5059745;28;20185;-84
2021/08/19 12:07:29;;;;;;;1.20;1.10;;;;;;;;;;5051285;28;20187;-85
2021/08/19 12:09:56;;;;;;;2.70;1.42;;;;;;;;;;5048167;28;20182;-84
2021/08/19 12:12:25;;;;;;;1.20;1.10;;;;;;;;;;5047835;28;20260;-84
2021/08/19 12:14:51;;;;;;;2.22;1.73;;;;;;;;;;5025941;28;20208;-84
2021/08/19 12:17:17;;;;;;;5.65;1.38;;;;;;;;;;5048627;28;20792;-84
2021/08/19 12:19:44;;;;;;;1.90;1.27;;;;;;;;;;5047811;28;20225;-85
2021/08/19 12:22:10;;;;;;;2.05;1.52;;;;;;;;;;5048171;28;20184;-84
2021/08/19 12:24:40;;;;;;;1.65;1.48;;;;;;;;;;5047318;28;20182;-83
2021/08/19 12:27:17;;;;;;;3.25;1.50;;;;;;;;;;5044590;28;20183;-83
2021/08/19 12:29:49;;;;;;;2.17;1.25;;;;;;;;;;5043079;28;20245;-83
2021/08/19 12:32:21;;;;;;;4.82;1.80;;;;;;;;;;5049680;28;20175;-83
2021/08/19 12:35:14;;;;;;;2.35;1.45;;;;;;;;;;5048707;28;20206;-84
2021/08/19 12:37:51;;;;;;;2.08;1.88;;;;;;;;;;5046169;28;20190;-81
2021/08/19 12:40:17;;;;;;;2.55;1.50;;;;;;;;;;5045932;28;20205;-83
2021/08/19 12:42:45;;;;;;;1.50;1.40;;;;;;;;;;5047403;28;20173;-83
2021/08/19 12:45:15;;;;;;;2.45;1.00;;;;;;;;;;5044898;28;20638;-84
2021/08/19 12:47:46;;;;;;;3.00;1.38;;;;;;;;;;5042851;28;20175;-83
2021/08/19 12:50:17;;;;;;;2.00;1.20;;;;;;;;;;5048517;28;20259;-85
2021/08/19 12:52:44;;;;;;;1.38;1.27;;;;;;;;;;5047463;28;20191;-84
2021/08/19 12:55:22;;;;;;;1.30;1.20;;;;;;;;;;5053834;28;20186;-84
2021/08/19 12:57:48;;;;;;;1.20;1.02;;;;;;;;;;5055867;28;20182;-84
2021/08/19 13:00:34;;;;;;;1.23;1.07;;;;;;;;;;5045653;28;20237;-84
2021/08/19 13:03:01;;;;;;;2.03;1.20;;;;;;;;;;5058377;28;20430;-84
2021/08/19 13:05:28;;;;;;;1.60;1.05;;;;;;;;;;5047777;28;20171;-84
2021/08/19 13:07:55;;;;;;;1.17;1.00;;;;;;;;;;5047930;28;20167;-83
2021/08/19 13:10:24;;;;;;;1.10;0.90;;;;;;;;;;5053815;28;20268;-84
2021/08/19 13:12:51;;;;;;;1.10;1.00;;;;;;;;;;5054938;28;20201;-83
2021/08/19 13:15:17;;;;;;;1.30;1.15;;;;;;;;;;5044974;28;20649;-83
2021/08/19 13:17:44;;;;;;;1.33;1.20;;;;;;;;;;5058163;28;20259;-84
2021/08/19 13:20:11;;;;;;;1.17;0.98;;;;;;;;;;5048713;28;20210;-84
2021/08/19 13:22:37;;;;;;;1.00;0.90;;;;;;;;;;5045913;28;20191;-81
2021/08/19 13:25:04;;;;;;;1.25;1.15;;;;;;;;;;5046533;28;20628;-83
2021/08/19 13:27:30;;;;;;;1.30;1.05;;;;;;;;;;5042710;28;20654;-83
2021/08/19 13:29:56;;;;;;;1.40;1.30;;;;;;;;;;5055892;28;20218;-84
2021/08/19 13:32:23;;;;;;;1.80;1.00;;;;;;;;;;5047570;28;20422;-83
2021/08/19 13:34:49;;;;;;;1.00;0.90;;;;;;;;;;5046365;28;20187;-83
2021/08/19 13:37:15;;;;;;;1.70;1.10;;;;;;;;;;5053299;28;20241;-83
2021/08/19 13:39:42;;;;;;;3.20;1.43;;;;;;;;;;5034372;28;20263;-83
2021/08/19 13:42:08;;;;;;;2.42;1.98;;;;;;;;;;5028843;28;20413;-83
2021/08/19 13:44:35;;;;;;;1.40;1.30;;;;;;;;;;5044533;28;20168;-83
2021/08/19 13:47:01;;;;;;;1.50;1.40;;;;;;;;;;5047650;28;20251;-84
2021/08/19 13:49:28;;;;;;;1.52;1.42;;;;;;;;;;5046342;28;20187;-83
2021/08/19 13:51:54;;;;;;;1.55;1.45;;;;;;;;;;5046003;28;20247;-84
2021/08/19 13:54:21;;;;;;;2.00;1.17;;;;;;;;;;5045888;28;20319;-84
2021/08/19 13:56:47;;;;;;;1.60;1.50;;;;;;;;;;5041741;28;20180;-84
2021/08/19 13:59:17;;;;;;;1.70;1.60;;;;;;;;;;5058737;28;20191;-85
2021/08/19 14:01:43;;;;;;;1.65;1.52;;;;;;;;;;5047032;28;20209;-84
2021/08/19 14:04:09;;;;;;;6.10;1.50;;;;;;;;;;5045932;28;20197;-83
2021/08/19 14:06:35;;;;;;;1.70;1.60;;;;;;;;;;5046393;28;20180;-84
2021/08/19 14:09:01;;;;;;;1.45;1.35;;;;;;;;;;5056113;28;20431;-83
2021/08/19 14:11:27;;;;;;;1.95;1.52;;;;;;;;;;5046481;28;20189;-83
2021/08/19 14:13:53;;;;;;;1.53;1.37;;;;;;;;;;5044181;28;20174;-84
2021/08/19 14:16:19;;;;;;;1.58;1.48;;;;;;;;;;5049175;28;20452;-84
2021/08/19 14:18:45;;;;;;;2.60;1.50;;;;;;;;;;5054399;28;20234;-84
2021/08/19 14:21:11;;;;;;;1.40;1.30;;;;;;;;;;5040676;28;20549;-83
2021/08/19 14:23:39;;;;;;;3.05;1.40;;;;;;;;;;5041558;28;20253;-83
2021/08/19 14:26:06;;;;;;;1.45;1.33;;;;;;;;;;5048756;28;20362;-85
2021/08/19 14:28:33;;;;;;;1.83;1.58;;;;;;;;;;5045406;28;20179;-84
2021/08/19 14:30:59;;;;;;;1.35;1.25;;;;;;;;;;5046044;28;20192;-84
2021/08/19 14:33:25;;;;;;;2.88;1.23;;;;;;;;;;5045968;28;20178;-84
2021/08/19 14:35:52;;;;;;;1.50;1.40;;;;;;;;;;5056668;28;20693;-83
2021/08/19 14:38:18;;;;;;;1.38;1.27;;;;;;;;;;5047060;28;20179;-83
2021/08/19 14:40:44;;;;;;;2.42;1.63;;;;;;;;;;5045410;28;20305;-83
2021/08/19 14:43:10;;;;;;;1.63;1.53;;;;;;;;;;5045092;28;20183;-82
2021/08/19 14:45:36;;;;;;;1.43;1.30;;;;;;;;;;5046064;28;20417;-83